Time;durP1;ratioP1;P1;durP2;ratioP2;P2;SDS_P1;SDS_P2;PMS_P1;PMS_P2;Temp;Humidity;BMP_temperature;BMP_pressure;BME280_temperature;BME280_humidity;BME280_pressure;Samples;Min_cycle;Max_cycle;Signal;HPM_P1;HPM_P2
2024/01/24 00:01:37;;;;;;;14.23;7.50;;;;;;;3.21;100.00;100205.25;5019455;28;20052;-93
2024/01/24 00:04:05;;;;;;;15.55;8.00;;;;;;;3.02;100.00;100210.88;5019941;28;20038;-94
2024/01/24 00:06:30;;;;;;;16.05;8.75;;;;;;;2.94;100.00;100215.03;5019995;28;20046;-94
2024/01/24 00:08:56;;;;;;;17.13;8.68;;;;;;;3.20;100.00;100252.50;5020774;28;20069;-94
2024/01/24 00:11:22;;;;;;;14.85;7.53;;;;;;;3.08;100.00;100232.94;5020355;28;20077;-94
2024/01/24 00:13:49;;;;;;;15.88;7.28;;;;;;;3.26;100.00;100248.28;5020200;28;20054;-93
2024/01/24 00:16:15;;;;;;;15.48;7.28;;;;;;;3.45;100.00;100294.38;5020284;28;20054;-94
2024/01/24 00:18:41;;;;;;;19.38;8.15;;;;;;;3.14;100.00;100242.69;5020782;28;20052;-95
2024/01/24 00:21:08;;;;;;;13.15;6.60;;;;;;;3.38;100.00;100289.78;5023095;28;20045;-94
2024/01/24 00:23:34;;;;;;;18.38;7.95;;;;;;;3.28;100.00;100277.25;5023884;28;20132;-93
2024/01/24 00:26:00;;;;;;;16.75;8.38;;;;;;;3.48;100.00;100317.22;5024590;28;20074;-94
2024/01/24 00:28:26;;;;;;;11.43;6.90;;;;;;;3.15;100.00;100260.28;5312776;22;20072;-94
2024/01/24 00:30:52;;;;;;;10.13;6.18;;;;;;;3.12;100.00;100259.28;5072321;28;20037;-94
2024/01/24 00:33:20;;;;;;;14.27;7.00;;;;;;;2.90;100.00;100235.06;5068788;28;20041;-94
2024/01/24 00:35:45;;;;;;;12.18;6.50;;;;;;;2.87;100.00;100249.00;5066040;28;20041;-93
2024/01/24 00:38:13;;;;;;;12.77;5.47;;;;;;;3.12;100.00;100281.19;5073837;28;20131;-94
2024/01/24 00:40:38;;;;;;;11.18;5.85;;;;;;;3.05;100.00;100269.63;5064103;28;20096;-94
2024/01/24 00:43:05;;;;;;;12.20;6.25;;;;;;;3.08;100.00;100267.09;5062849;28;20476;-93
2024/01/24 00:45:31;;;;;;;12.60;6.72;;;;;;;2.92;100.00;100235.09;5062781;28;20421;-94
2024/01/24 00:47:56;;;;;;;16.10;6.85;;;;;;;3.24;100.00;100301.69;5064878;28;20068;-94
2024/01/24 00:50:22;;;;;;;10.55;5.78;;;;;;;2.91;100.00;100251.69;5069452;28;20044;-93
2024/01/24 00:52:55;;;;;;;16.38;5.95;;;;;;;3.06;100.00;100286.31;5063590;28;20049;-93
2024/01/24 00:55:24;;;;;;;11.95;5.82;;;;;;;2.77;100.00;100239.06;5074075;28;20496;-94
2024/01/24 00:57:50;;;;;;;13.57;6.20;;;;;;;3.12;100.00;100303.97;5080958;28;20071;-93
2024/01/24 01:00:17;;;;;;;10.48;6.15;;;;;;;2.78;100.00;100245.25;5079529;28;20053;-93
2024/01/24 01:02:48;;;;;;;12.40;6.53;;;;;;;2.77;100.00;100241.69;5071571;28;20066;-94
2024/01/24 01:05:14;;;;;;;15.77;7.57;;;;;;;2.70;100.00;100236.25;5068365;28;20539;-94
2024/01/24 01:07:40;;;;;;;16.20;7.28;;;;;;;2.82;100.00;100245.38;5078993;28;20128;-94
2024/01/24 01:10:09;;;;;;;12.02;6.43;;;;;;;2.95;100.00;100246.59;5075354;28;20057;-94
2024/01/24 01:12:36;;;;;;;13.75;6.60;;;;;;;3.02;100.00;100232.78;5068250;28;20104;-94
2024/01/24 01:15:03;;;;;;;9.07;5.28;;;;;;;3.29;100.00;100265.88;5063478;28;20117;-93
2024/01/24 01:17:29;;;;;;;17.63;6.43;;;;;;;3.54;100.00;100303.34;5072981;28;20045;-93
2024/01/24 01:19:55;;;;;;;11.30;6.15;;;;;;;2.96;100.00;100242.22;5062864;28;20075;-94
2024/01/24 01:22:21;;;;;;;13.35;6.65;;;;;;;2.74;100.00;100241.63;5076532;28;20052;-94
2024/01/24 01:24:47;;;;;;;14.73;7.93;;;;;;;3.09;100.00;100308.28;5083545;28;20040;-95
2024/01/24 01:27:13;;;;;;;10.40;6.22;;;;;;;3.17;100.00;100302.38;5082914;28;20036;-93
2024/01/24 01:29:40;;;;;;;14.65;7.07;;;;;;;3.15;100.00;100289.19;5083308;28;20406;-94
2024/01/24 01:32:06;;;;;;;13.07;5.80;;;;;;;3.00;100.00;100242.34;5074293;28;20052;-94
2024/01/24 01:34:32;;;;;;;13.32;6.63;;;;;;;2.99;100.00;100237.97;5071968;28;20502;-93
2024/01/24 01:36:58;;;;;;;13.40;6.63;;;;;;;3.21;100.00;100281.47;5070243;28;20048;-93
2024/01/24 01:39:24;;;;;;;12.63;6.70;;;;;;;3.08;100.00;100250.44;5065206;28;20127;-94
2024/01/24 01:41:50;;;;;;;14.45;6.93;;;;;;;3.15;100.00;100270.78;5061708;28;20067;-96
2024/01/24 01:44:15;;;;;;;14.55;5.88;;;;;;;3.08;100.00;100243.44;5061663;28;20482;-94
2024/01/24 01:46:45;;;;;;;16.02;6.32;;;;;;;3.36;100.00;100291.50;5063095;28;20052;-94
2024/01/24 01:49:12;;;;;;;13.20;6.07;;;;;;;3.20;100.00;100299.81;5061300;28;20052;-96
2024/01/24 01:51:38;;;;;;;10.30;5.82;;;;;;;3.01;100.00;100262.50;5070315;28;20055;-94
2024/01/24 01:54:06;;;;;;;15.02;6.40;;;;;;;3.16;100.00;100271.66;5082423;28;20052;-94
2024/01/24 01:56:32;;;;;;;9.10;5.57;;;;;;;3.04;100.00;100245.97;5082500;28;20067;-93
2024/01/24 01:58:58;;;;;;;11.18;5.43;;;;;;;3.50;100.00;100323.41;5077593;28;20029;-93
2024/01/24 02:01:25;;;;;;;14.13;6.38;;;;;;;3.05;100.00;100247.72;5073193;28;20044;-93
2024/01/24 02:03:53;;;;;;;11.57;5.80;;;;;;;3.22;100.00;100271.84;5062104;28;20049;-95
2024/01/24 02:06:19;;;;;;;13.27;6.30;;;;;;;3.28;100.00;100299.19;5060462;28;20049;-95
2024/01/24 02:08:45;;;;;;;12.73;6.65;;;;;;;3.27;100.00;100317.53;5062063;28;20098;-94
2024/01/24 02:11:11;;;;;;;13.48;5.85;;;;;;;2.82;100.00;100254.97;5062825;28;20057;-95
2024/01/24 02:13:37;;;;;;;11.55;5.55;;;;;;;2.99;100.00;100255.44;5063136;28;20080;-94
2024/01/24 02:16:04;;;;;;;11.63;5.50;;;;;;;2.97;100.00;100233.47;5062965;28;20041;-94
2024/01/24 02:18:30;;;;;;;11.63;5.50;;;;;;;3.00;100.00;100242.34;5081652;28;20051;-95
2024/01/24 02:20:57;;;;;;;11.43;5.75;;;;;;;3.13;100.00;100277.75;5071951;28;20052;-94
2024/01/24 02:23:25;;;;;;;9.30;5.95;;;;;;;3.23;100.00;100294.63;5061839;28;20049;-94
2024/01/24 02:25:53;;;;;;;14.45;6.75;;;;;;;3.04;100.00;100281.00;5061524;28;20045;-96
2024/01/24 02:28:19;;;;;;;11.40;6.20;;;;;;;2.74;100.00;100239.00;5061300;28;20071;-94
2024/01/24 02:30:45;;;;;;;11.30;6.20;;;;;;;2.85;100.00;100244.56;5062035;28;20112;-93
2024/01/24 02:33:11;;;;;;;10.02;6.45;;;;;;;2.74;100.00;100239.00;5061534;28;20051;-95
2024/01/24 02:35:37;;;;;;;14.43;7.85;;;;;;;2.95;100.00;100269.34;5062007;28;20466;-93
2024/01/24 02:38:03;;;;;;;13.57;7.25;;;;;;;3.17;100.00;100289.22;5061125;28;20095;-94
2024/01/24 02:40:29;;;;;;;15.20;7.00;;;;;;;3.08;100.00;100255.72;5060901;28;20068;-94
2024/01/24 02:42:56;;;;;;;11.50;6.82;;;;;;;3.40;100.00;100300.34;5061039;28;20071;-94
2024/01/24 02:45:22;;;;;;;10.82;6.43;;;;;;;2.95;100.00;100227.28;5060333;28;20132;-94
2024/01/24 02:47:48;;;;;;;11.80;7.15;;;;;;;2.89;100.00;100251.69;5060403;28;20072;-94
2024/01/24 02:50:14;;;;;;;12.45;7.00;;;;;;;2.83;100.00;100236.63;5066047;28;20041;-95
2024/01/24 02:52:40;;;;;;;14.15;6.18;;;;;;;3.21;100.00;100276.22;5062897;28;20041;-94
2024/01/24 02:55:07;;;;;;;11.00;5.60;;;;;;;3.03;100.00;100237.16;5060626;28;20048;-94
2024/01/24 02:57:33;;;;;;;13.70;6.22;;;;;;;3.16;100.00;100251.53;5064773;28;20085;-96
2024/01/24 03:00:00;;;;;;;12.52;6.13;;;;;;;2.94;100.00;100202.75;5080966;28;20161;-94
2024/01/24 03:02:26;;;;;;;12.18;6.40;;;;;;;3.21;100.00;100296.31;5078110;28;20094;-94
2024/01/24 03:04:52;;;;;;;13.15;6.25;;;;;;;2.76;100.00;100231.19;5060858;28;20041;-95
2024/01/24 03:07:18;;;;;;;16.05;7.35;;;;;;;3.07;100.00;100293.34;5060871;28;20502;-94
2024/01/24 03:09:44;;;;;;;13.73;6.13;;;;;;;2.82;100.00;100226.97;5070900;28;20052;-94
2024/01/24 03:12:11;;;;;;;14.98;6.95;;;;;;;2.68;100.00;100221.31;5060592;28;20045;-93
2024/01/24 03:14:37;;;;;;;19.02;7.47;;;;;;;2.62;100.00;100201.88;5060808;28;20060;-93
2024/01/24 03:17:04;;;;;;;11.30;6.32;;;;;;;2.81;100.00;100233.06;5060135;28;20045;-94
2024/01/24 03:19:30;;;;;;;19.27;8.68;;;;;;;2.75;100.00;100237.25;5061193;28;20429;-95
2024/01/24 03:21:56;;;;;;;16.17;9.02;;;;;;;3.15;100.00;100286.56;5060277;28;20045;-94
2024/01/24 03:24:22;;;;;;;14.45;8.48;;;;;;;3.11;100.00;100249.63;5061081;28;20057;-95
2024/01/24 03:26:48;;;;;;;18.98;9.25;;;;;;;3.18;100.00;100270.84;5061782;28;20548;-94
2024/01/24 03:29:13;;;;;;;17.17;8.77;;;;;;;2.87;100.00;100198.19;5068244;28;20061;-94
2024/01/24 03:31:42;;;;;;;16.70;8.50;;;;;;;2.87;100.00;100203.47;5060634;28;20047;-96
2024/01/24 03:34:10;;;;;;;16.73;9.07;;;;;;;2.78;100.00;100188.34;5067637;28;20052;-94
2024/01/24 03:36:36;;;;;;;16.85;8.68;;;;;;;3.02;100.00;100222.25;5081691;28;20482;-94
2024/01/24 03:39:03;;;;;;;20.45;10.48;;;;;;;3.05;100.00;100227.59;5073017;28;20063;-95
2024/01/24 03:41:29;;;;;;;16.25;8.88;;;;;;;2.98;100.00;100186.22;5062903;28;20049;-95
2024/01/24 03:43:55;;;;;;;20.65;10.30;;;;;;;3.11;100.00;100228.63;5062428;28;20071;-95
2024/01/24 03:46:22;;;;;;;15.85;9.32;;;;;;;2.71;100.00;100182.84;5061594;28;20100;-94
2024/01/24 03:48:48;;;;;;;16.52;9.07;;;;;;;2.66;100.00;100195.88;5061049;28;20485;-93
2024/01/24 03:51:15;;;;;;;16.70;8.60;;;;;;;2.61;100.00;100198.38;5062748;28;20128;-96
2024/01/24 03:53:41;;;;;;;15.85;8.38;;;;;;;2.62;100.00;100188.75;5075924;28;20067;-94
2024/01/24 03:56:07;;;;;;;17.13;8.32;;;;;;;2.54;100.00;100179.75;5078031;28;20109;-94
2024/01/24 03:58:33;;;;;;;17.77;9.88;;;;;;;2.36;100.00;100190.66;5077917;28;20047;-94
2024/01/24 04:00:59;;;;;;;14.77;8.57;;;;;;;2.35;100.00;100200.25;5072950;28;20109;-94
2024/01/24 04:03:26;;;;;;;16.17;8.90;;;;;;;2.68;100.00;100229.19;5080518;28;20139;-94
2024/01/24 04:05:52;;;;;;;18.65;9.68;;;;;;;2.39;100.00;100194.25;5077047;28;20048;-94
2024/01/24 04:08:20;;;;;;;18.40;9.40;;;;;;;2.82;100.00;100257.59;5065661;28;20028;-94
2024/01/24 04:10:45;;;;;;;19.23;9.27;;;;;;;2.45;100.00;100211.91;5065232;28;20052;-95
2024/01/24 04:13:11;;;;;;;17.02;9.32;;;;;;;2.43;100.00;100208.38;5070803;28;20124;-95
2024/01/24 04:15:37;;;;;;;14.45;8.68;;;;;;;2.77;100.00;100243.44;5065144;28;20060;-94
2024/01/24 04:18:04;;;;;;;16.52;8.50;;;;;;;2.63;100.00;100220.31;5067567;28;20040;-94
2024/01/24 04:20:29;;;;;;;14.38;7.40;;;;;;;2.48;100.00;100188.38;5063731;28;20045;-93
2024/01/24 04:22:55;;;;;;;15.55;8.00;;;;;;;2.35;100.00;100200.25;5064113;28;20045;-95
2024/01/24 04:25:22;;;;;;;18.38;8.30;;;;;;;2.36;100.00;100196.78;5065038;28;20087;-94
2024/01/24 04:27:48;;;;;;;14.07;8.27;;;;;;;2.44;100.00;100241.63;5065535;28;20052;-93
2024/01/24 04:30:15;;;;;;;15.00;8.43;;;;;;;2.09;100.00;100181.13;5064778;28;20118;-93
2024/01/24 04:32:41;;;;;;;21.08;9.00;;;;;;;2.11;100.00;100192.56;5081440;28;20118;-94
2024/01/24 04:35:07;;;;;;;14.80;8.35;;;;;;;2.02;100.00;100181.81;5084678;28;20481;-96
2024/01/24 04:37:42;;;;;;;16.20;8.00;;;;;;;2.10;100.00;100182.88;5138736;22;20398;-94
2024/01/24 04:40:10;;;;;;;16.85;8.70;;;;;;;2.07;100.00;100177.56;5092881;22;20079;-95
2024/01/24 04:42:38;;;;;;;17.05;8.55;;;;;;;2.02;100.00;100169.56;5084136;28;20044;-94
2024/01/24 04:45:05;;;;;;;12.60;7.13;;;;;;;2.02;100.00;100182.69;5083368;28;20045;-93
2024/01/24 04:47:31;;;;;;;11.20;6.25;;;;;;;1.88;100.00;100172.63;5063893;28;20040;-94
2024/01/24 04:49:57;;;;;;;13.50;6.50;;;;;;;1.92;100.00;100167.50;5063342;28;20678;-94
2024/01/24 04:52:23;;;;;;;11.43;6.75;;;;;;;1.70;100.00;100173.81;5083760;28;20040;-94
2024/01/24 04:54:50;;;;;;;12.80;5.75;;;;;;;1.85;100.00;100225.88;5084787;28;20079;-94
2024/01/24 04:57:17;;;;;;;11.35;5.95;;;;;;;1.52;100.00;100174.16;5074941;28;20041;-93
2024/01/24 04:59:44;;;;;;;12.25;6.45;;;;;;;1.92;100.00;100224.34;5084358;28;20041;-94
2024/01/24 05:02:10;;;;;;;10.32;5.78;;;;;;;1.88;100.00;100222.44;5066636;28;20135;-95
2024/01/24 05:04:36;;;;;;;12.73;7.10;;;;;;;1.64;100.00;100187.63;5077279;28;20072;-94
2024/01/24 05:07:02;;;;;;;12.82;7.55;;;;;;;1.45;100.00;100177.38;5082292;28;20142;-94
2024/01/24 05:09:28;;;;;;;11.93;6.28;;;;;;;1.71;100.00;100237.66;5065378;28;20045;-94
2024/01/24 05:11:53;;;;;;;11.70;6.22;;;;;;;1.89;100.00;100274.97;5064691;28;20045;-93
2024/01/24 05:14:19;;;;;;;11.48;6.22;;;;;;;1.47;100.00;100186.19;5081683;28;20051;-94
2024/01/24 05:16:49;;;;;;;11.10;5.90;;;;;;;1.59;100.00;100183.09;5086413;28;20089;-93
2024/01/24 05:19:15;;;;;;;9.35;5.60;;;;;;;1.74;100.00;100201.06;5070981;28;20099;-94
2024/01/24 05:21:42;;;;;;;10.13;5.20;;;;;;;1.74;100.00;100217.66;5063390;28;20045;-94
2024/01/24 05:24:09;;;;;;;11.45;6.40;;;;;;;1.36;100.00;100169.25;5064911;28;20048;-94
2024/01/24 05:26:35;;;;;;;13.38;6.35;;;;;;;1.61;100.00;100223.38;5063699;28;20037;-94
2024/01/24 05:29:01;;;;;;;13.70;6.13;;;;;;;1.40;100.00;100171.13;5067271;28;20041;-94
2024/01/24 05:31:26;;;;;;;12.73;6.70;;;;;;;1.57;100.00;100180.41;5082481;28;20036;-95
2024/01/24 05:33:55;;;;;;;16.38;5.72;;;;;;;1.44;100.00;100168.66;5082517;28;20127;-95
2024/01/24 05:36:22;;;;;;;11.60;6.53;;;;;;;1.75;100.00;100227.28;5084422;28;20508;-95
2024/01/24 05:38:48;;;;;;;10.05;5.38;;;;;;;1.35;100.00;100184.09;5089644;28;20048;-93
2024/01/24 05:41:14;;;;;;;13.25;6.15;;;;;;;1.36;100.00;100198.94;5073447;28;20041;-94
2024/01/24 05:43:40;;;;;;;13.50;6.28;;;;;;;1.26;100.00;100189.03;5063372;28;20101;-93
2024/01/24 05:46:06;;;;;;;13.52;6.57;;;;;;;1.23;100.00;100191.53;5067444;28;20076;-94
2024/01/24 05:48:32;;;;;;;10.05;5.57;;;;;;;1.34;100.00;100200.63;5067326;28;20041;-94
2024/01/24 05:51:00;;;;;;;14.57;6.80;;;;;;;1.53;100.00;100248.44;5074625;28;20071;-94
2024/01/24 05:53:26;;;;;;;11.20;6.15;;;;;;;1.23;100.00;100183.66;5083121;28;20532;-93
2024/01/24 05:55:52;;;;;;;12.20;5.63;;;;;;;1.49;100.00;100238.69;5064400;28;20049;-95
2024/01/24 05:58:18;;;;;;;12.30;5.80;;;;;;;1.21;100.00;100199.38;5062028;28;20113;-93
2024/01/24 06:00:44;;;;;;;14.23;6.70;;;;;;;1.37;100.00;100229.59;5062066;28;20068;-94
2024/01/24 06:03:11;;;;;;;10.95;6.35;;;;;;;1.16;100.00;100195.69;5061312;28;20037;-93
2024/01/24 06:05:37;;;;;;;13.43;6.47;;;;;;;1.34;100.00;100208.50;5062069;28;20052;-93
2024/01/24 06:08:05;;;;;;;14.32;6.40;;;;;;;1.37;100.00;100219.09;5061957;28;20041;-94
2024/01/24 06:10:31;;;;;;;14.75;7.03;;;;;;;1.44;100.00;100207.97;5062747;28;20041;-94
2024/01/24 06:12:57;;;;;;;13.77;6.65;;;;;;;1.46;100.00;100207.16;5062769;28;20053;-94
2024/01/24 06:15:24;;;;;;;11.63;5.85;;;;;;;1.31;100.00;100170.84;5077263;28;20036;-96
2024/01/24 06:17:51;;;;;;;12.27;6.22;;;;;;;1.46;100.00;100199.28;5082840;28;20099;-95
2024/01/24 06:20:19;;;;;;;11.73;6.70;;;;;;;1.55;100.00;100224.03;5083456;28;20036;-95
2024/01/24 06:22:46;;;;;;;17.63;6.43;;;;;;;1.56;100.00;100210.13;5082710;28;20094;-94
2024/01/24 06:25:14;;;;;;;10.85;6.35;;;;;;;1.41;100.00;100178.13;5083137;28;20055;-93
2024/01/24 06:27:41;;;;;;;13.35;6.35;;;;;;;1.65;100.00;100206.91;5083154;28;20074;-94
2024/01/24 06:30:10;;;;;;;15.90;6.90;;;;;;;1.60;100.00;100213.69;5082646;28;20049;-94
2024/01/24 06:32:36;;;;;;;14.10;7.28;;;;;;;1.74;100.00;100262.25;5082406;28;20048;-93
2024/01/24 06:35:02;;;;;;;13.00;6.60;;;;;;;1.34;100.00;100198.00;5068724;28;20045;-93
2024/01/24 06:37:27;;;;;;;12.13;7.03;;;;;;;1.40;100.00;100211.31;5060509;28;20056;-95
2024/01/24 06:39:53;;;;;;;19.38;7.05;;;;;;;1.49;100.00;100230.81;5060535;28;20045;-94
2024/01/24 06:42:21;;;;;;;12.10;6.50;;;;;;;1.54;100.00;100227.53;5061679;28;20066;-95
2024/01/24 06:44:46;;;;;;;11.88;6.07;;;;;;;1.48;100.00;100205.47;5060226;28;20040;-96
2024/01/24 06:47:12;;;;;;;15.93;6.63;;;;;;;1.53;100.00;100211.72;5060549;28;20044;-95
2024/01/24 06:49:38;;;;;;;15.15;6.82;;;;;;;1.54;100.00;100214.41;5060794;28;20494;-96
2024/01/24 06:52:04;;;;;;;13.65;6.68;;;;;;;1.67;100.00;100236.69;5060075;28;20049;-95
2024/01/24 06:54:35;;;;;;;15.32;7.65;;;;;;;1.58;100.00;100218.00;5059389;28;20071;-96
2024/01/24 06:57:00;;;;;;;;;;;;;;;1.95;100.00;100284.75;5061859;28;20040;-95
2024/01/24 06:59:27;;;;;;;15.43;7.20;;;;;;;1.76;100.00;100260.56;5062673;28;19916;-95
2024/01/24 07:01:53;;;;;;;11.63;6.30;;;;;;;1.45;100.00;100219.34;5064321;28;20139;-93
2024/01/24 07:04:20;;;;;;;15.43;7.90;;;;;;;1.78;100.00;100260.63;5057013;28;20073;-94
2024/01/24 07:06:45;;;;;;;15.95;8.27;;;;;;;1.77;100.00;100267.59;5051749;28;20025;-94
2024/01/24 07:09:12;;;;;;;11.48;6.97;;;;;;;1.52;100.00;100239.69;5058689;28;20056;-94
2024/01/24 07:11:39;;;;;;;13.70;7.82;;;;;;;1.80;100.00;100287.75;5058858;28;20075;-94
2024/01/24 07:14:05;;;;;;;12.05;7.90;;;;;;;1.62;100.00;100218.16;5058234;28;20074;-94
2024/01/24 07:16:33;;;;;;;12.80;6.57;;;;;;;2.04;100.00;100288.56;5059256;28;20083;-93
2024/01/24 07:18:59;;;;;;;12.20;6.82;;;;;;;1.55;100.00;100207.44;5061389;28;20060;-94
2024/01/24 07:21:25;;;;;;;12.73;6.50;;;;;;;1.60;100.00;100195.34;5061722;28;20091;-95
2024/01/24 07:23:51;;;;;;;25.45;10.07;;;;;;;1.76;100.00;100202.00;5061144;28;20045;-94
2024/01/24 07:26:19;;;;;;;17.60;8.80;;;;;;;1.67;100.00;100207.84;5062470;28;20052;-95
2024/01/24 07:28:44;;;;;;;22.75;10.00;;;;;;;1.91;100.00;100248.75;5059176;28;20049;-95
2024/01/24 07:31:10;;;;;;;19.00;9.23;;;;;;;1.92;100.00;100253.19;5060218;28;20098;-91
2024/01/24 07:33:40;;;;;;;13.63;7.53;;;;;;;2.05;100.00;100290.34;5063613;28;20135;-94
2024/01/24 07:36:06;;;;;;;18.48;7.63;;;;;;;1.91;100.00;100252.31;5060658;28;20053;-96
2024/01/24 07:38:33;;;;;;;19.70;8.60;;;;;;;2.07;100.00;100294.75;5063034;28;20111;-95
2024/01/24 07:40:59;;;;;;;19.98;9.65;;;;;;;1.97;100.00;100269.94;5064373;28;20045;-93
2024/01/24 07:43:25;;;;;;;17.27;7.72;;;;;;;1.93;100.00;100220.84;5063987;28;20075;-94
2024/01/24 07:45:51;;;;;;;18.75;9.23;;;;;;;2.11;100.00;100239.78;5064135;28;20110;-93
2024/01/24 07:48:17;;;;;;;24.52;10.60;;;;;;;2.57;100.00;100305.91;5065715;28;20041;-94
2024/01/24 07:50:45;;;;;;;21.50;10.43;;;;;;;2.26;100.00;100236.75;5065046;28;20089;-93
2024/01/24 07:53:11;;;;;;;23.08;10.38;;;;;;;2.37;100.00;100234.44;5064369;28;20068;-95
2024/01/24 07:55:38;;;;;;;24.77;11.98;;;;;;;2.45;100.00;100252.19;5064228;28;20072;-94
2024/01/24 07:58:04;;;;;;;23.45;11.32;;;;;;;2.44;100.00;100247.78;5064187;28;20457;-93
2024/01/24 08:00:30;;;;;;;24.63;11.13;;;;;;;2.46;100.00;100253.09;5064228;28;20066;-95
2024/01/24 08:02:58;;;;;;;34.72;13.85;;;;;;;2.51;100.00;100267.22;5064385;28;20502;-94
2024/01/24 08:05:24;;;;;;;33.90;13.88;;;;;;;2.38;100.00;100250.22;5064004;28;20056;-94
2024/01/24 08:07:52;;;;;;;27.48;12.70;;;;;;;2.74;100.00;100293.28;5063762;28;20049;-95
2024/01/24 08:10:18;;;;;;;27.70;11.43;;;;;;;3.03;100.00;100315.13;5062766;28;20045;-96
2024/01/24 08:12:44;;;;;;;27.35;11.30;;;;;;;3.07;100.00;100288.06;5063977;28;20116;-94
2024/01/24 08:15:10;;;;;;;33.38;11.70;;;;;;;2.94;100.00;100265.81;5064545;28;20072;-95
2024/01/24 08:17:37;;;;;;;35.13;11.82;;;;;;;3.06;100.00;100267.91;5064870;28;20048;-93
2024/01/24 08:20:04;;;;;;;21.45;10.10;;;;;;;2.99;100.00;100258.97;5065370;28;20045;-93
2024/01/24 08:22:30;;;;;;;26.48;10.25;;;;;;;3.13;100.00;100287.38;5065093;28;20052;-93
2024/01/24 08:24:58;;;;;;;20.80;10.68;;;;;;;2.76;100.00;100257.44;5063956;28;20045;-92
2024/01/24 08:27:24;;;;;;;19.48;10.27;;;;;;;2.83;100.00;100283.91;5062379;28;20045;-94
2024/01/24 08:29:50;;;;;;;22.50;10.07;;;;;;;2.75;100.00;100266.16;5062994;28;20107;-93
2024/01/24 08:32:16;;;;;;;19.05;9.45;;;;;;;3.02;100.00;100319.50;5062558;28;20064;-93
2024/01/24 08:34:43;;;;;;;20.58;10.90;;;;;;;2.63;100.00;100271.97;5062545;28;20029;-95
2024/01/24 08:37:09;;;;;;;23.02;10.45;;;;;;;2.68;100.00;100273.84;5064746;28;20123;-95
2024/01/24 08:39:36;;;;;;;21.48;9.90;;;;;;;2.72;100.00;100268.72;5064197;28;20159;-94
2024/01/24 08:42:03;;;;;;;19.58;10.07;;;;;;;2.82;100.00;100260.22;5063224;28;20049;-94
2024/01/24 08:44:29;;;;;;;24.75;12.57;;;;;;;2.92;100.00;100264.00;5086667;28;20056;-95
2024/01/24 08:46:55;;;;;;;38.13;11.55;;;;;;;3.09;100.00;100262.72;5084632;28;20036;-94
2024/01/24 08:49:21;;;;;;;33.15;12.07;;;;;;;3.57;100.00;100334.97;5083196;28;20048;-93
2024/01/24 08:51:47;;;;;;;16.88;9.60;;;;;;;3.31;100.00;100247.53;5085031;28;20066;-96
2024/01/24 08:54:13;;;;;;;22.73;10.55;;;;;;;3.81;100.00;100313.69;5083405;28;20064;-94
2024/01/24 08:56:39;;;;;;;21.50;9.95;;;;;;;3.94;100.00;100299.97;5082356;28;20611;-95
2024/01/24 08:59:06;;;;;;;20.33;9.57;;;;;;;3.79;100.00;100268.91;5082229;28;20094;-94
2024/01/24 09:01:32;;;;;;;21.95;9.65;;;;;;;3.86;100.00;100254.13;5083031;28;20044;-94
2024/01/24 09:03:58;;;;;;;19.05;10.20;;;;;;;4.13;100.00;100271.47;5081850;28;20052;-95
2024/01/24 09:06:25;;;;;;;21.52;10.55;;;;;;;4.40;100.00;100276.44;5082436;28;20048;-93
2024/01/24 09:08:52;;;;;;;20.00;11.07;;;;;;;4.59;100.00;100254.91;5085100;28;20070;-94
2024/01/24 09:11:18;;;;;;;20.10;10.75;;;;;;;4.53;100.00;100246.88;5091063;28;20112;-94
2024/01/24 09:13:51;;;;;;;26.85;11.93;;;;;;;4.72;100.00;100287.66;5092676;28;20048;-94
2024/01/24 09:16:21;;;;;;;19.48;11.40;;;;;;;5.19;100.00;100310.59;5065989;28;20044;-94
2024/01/24 09:18:47;;;;;;;17.13;9.73;;;;;;;5.23;100.00;100323.88;5068322;28;20113;-94
2024/01/24 09:21:13;;;;;;;24.55;11.52;;;;;;;4.92;100.00;100274.88;5066365;28;20041;-94
2024/01/24 09:23:38;;;;;;;25.10;11.02;;;;;;;4.93;100.00;100279.31;5058995;28;20052;-94
2024/01/24 09:26:04;;;;;;;23.25;11.90;;;;;;;5.31;100.00;100302.88;5057418;28;20053;-93
2024/01/24 09:28:30;;;;;;;22.02;11.68;;;;;;;5.59;100.00;100293.72;5058722;28;20073;-95
2024/01/24 09:30:56;;;;;;;25.55;12.43;;;;;;;5.76;100.00;100262.34;5064670;28;20040;-95
2024/01/24 09:33:23;;;;;;;24.83;13.60;;;;;;;6.51;100.00;100326.94;5080743;28;20044;-95
2024/01/24 09:35:49;;;;;;;24.13;13.30;;;;;;;6.49;100.00;100326.03;5077976;28;20037;-95
2024/01/24 09:38:15;;;;;;;23.77;12.57;;;;;;;6.80;100.00;100344.94;5077579;28;20109;-94
2024/01/24 09:40:42;;;;;;;22.85;12.77;;;;;;;6.58;100.00;100285.63;5078090;28;20079;-95
2024/01/24 09:43:10;;;;;;;29.63;13.65;;;;;;;6.44;100.00;100303.94;5077650;28;20080;-95
2024/01/24 09:45:42;;;;;;;25.27;12.82;;;;;;;6.21;100.00;100276.28;5077704;28;20055;-94
2024/01/24 09:48:10;;;;;;;27.20;13.50;;;;;;;6.44;100.00;100311.88;5078258;28;20508;-96
2024/01/24 09:50:39;;;;;;;24.08;12.98;;;;;;;6.24;100.00;100276.31;5077600;28;20094;-95
2024/01/24 09:53:08;;;;;;;26.73;14.20;;;;;;;6.28;100.00;100273.75;5077125;28;20044;-94
2024/01/24 09:55:34;;;;;;;21.70;12.43;;;;;;;6.40;100.00;100319.69;5079048;28;20051;-96
2024/01/24 09:58:00;;;;;;;23.05;12.07;;;;;;;6.12;100.00;100284.97;5079180;28;20041;-96
2024/01/24 10:00:26;;;;;;;25.42;12.18;;;;;;;6.24;100.00;100324.75;5077424;28;20041;-94
2024/01/24 10:02:52;;;;;;;22.77;12.70;;;;;;;5.89;100.00;100248.47;5077045;28;20106;-96
2024/01/24 10:05:19;;;;;;;29.25;14.07;;;;;;;6.24;100.00;100308.91;5077315;28;20135;-94
2024/01/24 10:07:49;;;;;;;23.38;13.77;;;;;;;5.98;100.00;100311.13;5077276;28;20048;-96
2024/01/24 10:10:15;;;;;;;24.88;12.77;;;;;;;6.02;100.00;100323.53;5077640;28;20068;-95
2024/01/24 10:12:42;;;;;;;23.25;14.55;;;;;;;5.64;100.00;100247.22;5076437;28;20394;-96
2024/01/24 10:15:08;;;;;;;25.73;13.07;;;;;;;5.71;100.00;100248.19;5076238;28;20135;-95
2024/01/24 10:17:34;;;;;;;20.95;12.50;;;;;;;5.83;100.00;100252.78;5077325;28;20037;-96
2024/01/24 10:20:00;;;;;;;21.88;12.52;;;;;;;5.82;100.00;100243.97;5077269;28;20090;-95
2024/01/24 10:22:26;;;;;;;29.15;13.43;;;;;;;5.94;100.00;100248.53;5077047;28;20478;-92
2024/01/24 10:24:54;;;;;;;29.35;14.40;;;;;;;6.10;100.00;100284.94;5076869;28;20044;-95
2024/01/24 10:27:20;;;;;;;25.45;13.60;;;;;;;6.17;100.00;100289.44;5077392;28;20062;-95
2024/01/24 10:29:46;;;;;;;21.17;12.88;;;;;;;6.33;100.00;100331.94;5077167;28;20072;-96
2024/01/24 10:32:12;;;;;;;22.95;12.80;;;;;;;5.97;100.00;100265.38;5077082;28;20064;-95
2024/01/24 10:34:38;;;;;;;23.20;13.27;;;;;;;6.01;100.00;100250.47;5076905;28;20392;-94
2024/01/24 10:37:06;;;;;;;24.25;13.52;;;;;;;6.38;100.00;100304.72;5076902;28;20045;-94
2024/01/24 10:39:35;;;;;;;23.02;13.00;;;;;;;6.11;100.00;100264.69;5076576;28;20087;-96
2024/01/24 10:42:06;;;;;;;22.92;12.20;;;;;;;6.22;100.00;100286.84;5076941;28;20130;-95
2024/01/24 10:44:33;;;;;;;24.50;13.52;;;;;;;6.07;100.00;100262.84;5077274;28;20041;-95
2024/01/24 10:46:59;;;;;;;26.20;12.70;;;;;;;6.00;100.00;100283.00;5076545;28;20102;-94
2024/01/24 10:49:27;;;;;;;22.92;12.98;;;;;;;6.07;100.00;100273.41;5077548;28;20045;-93
2024/01/24 10:51:55;;;;;;;18.88;12.55;;;;;;;5.84;100.00;100226.41;5079024;28;20020;-95
2024/01/24 10:54:22;;;;;;;25.50;13.38;;;;;;;5.83;100.00;100251.00;5080223;28;20031;-95
2024/01/24 10:56:50;;;;;;;24.80;13.75;;;;;;;5.82;100.00;100257.16;5079268;28;20498;-95
2024/01/24 10:59:18;;;;;;;22.13;13.57;;;;;;;5.73;100.00;100233.28;5077413;28;20127;-95
2024/01/24 11:01:44;;;;;;;25.88;14.93;;;;;;;6.20;100.00;100285.06;5075988;28;20049;-95
2024/01/24 11:04:14;;;;;;;27.92;15.15;;;;;;;5.95;100.00;100214.28;5077262;28;20059;-94
2024/01/24 11:06:45;;;;;;;25.95;14.48;;;;;;;6.29;100.00;100241.19;5078847;28;20040;-95
2024/01/24 11:09:23;;;;;;;27.48;16.88;;;;;;;6.41;100.00;100195.53;5078203;28;20048;-94
2024/01/24 11:11:53;;;;;;;30.38;16.00;;;;;;;7.18;100.00;100274.00;5076688;28;20123;-95